Huvudsida
METAR-TAF:

METAR-TAF

Flygplatser :

Göteborg-Landvetter Airport

Göteborg-Landvetter, Sverige

latitud: 57-40N, longitud: 012-18E, höjd: 169 m

Aktuellt väderrapport

Denna rapport gjordes för 33 minuter sedan, klockan 09:50 UTC
Vind 8 kt från nordväst, varierande mellan väst/nordväst och nord/nordost
Temperatur 10°C
Fuktighet 46%
Tryck 1017 hPa
Sikt 10 km eller mer
Inga moln under 1 500 m eller inga cumulonimbus

METAR: ESGG 240950Z 32008KT 290V020 CAVOK 10/M01 Q1017

Tid: 12:23 (10:23 UTC)

Väderprognos

Denna rapport gjordes för 4 timmar och 53 minuter sedan, klockan 05:30 UTC
Prognos gäller från 24 kl. 06 UTC till 25 kl. 06 UTC
Vind 8 kt från nord/nordväst
Sikt 10 km eller mer
Inga moln under 1 500 m eller inga cumulonimbus

TAF: ESGG 240530Z 2406/2506 34008KT CAVOK

Aktuella väderrapporter och prognoser från 4000 flygplatser (METAR- och TAF-rapporter).

De tillgängliga stationerna syns som gula och röda prickar på kartan.

För musen över prickarna för att se namnen på stationerna.

Klicka sedan för att få väderrapporter och prognoser.

För att ändra kartan: Klicka på de gröna knapparna med ett svart kors på för att zooma in; den gröna knappen med ett streck på för att zooma ut; eller på de gröna pilarna för angränsande kartor.


METAR-TAF: